Conover, NC (28613)

1:17 AM EST on January 20, 2017 (GMT -0500)
Riverbend Park | | Change Station

Elev 971 ft 35.82 °N, 81.19 °W | Updated 15 days ago

Mostly Cloudy
Mostly Cloudy
50.1 °F
Feels Like 50.1 °F
N
7.0
Wind Variable Wind from WNW

Today
High -- | Low -- °F
--% Chance of Precip.
Yesterday
High -- | Low -- °F
Precip. -- in
Pressure 29.89 in
Visibility 10.0 miles
Clouds Mostly Cloudy 5500 ft
Dew Point 38 °F
Humidity 63%
Rainfall 0.00 in
Snow Depth Not available.
7:32 AM 5:40 PM
Waning Gibbous, 47% visible
METAR KHKY 200553Z AUTO 00000KT 10SM BKN055 10/06 A2993 RMK AO2 SLP121 T01000056 10139 20100 58015
Pressure 29.89 in
Visibility 10.0 miles
Clouds Mostly Cloudy 5500 ft
Dew Point 38 °F
Humidity 63%
Rainfall 0.00 in
Snow Depth Not available.
7:32 AM 5:40 PM
Waning Gibbous, 47% visible
METAR KHKY 200553Z AUTO 00000KT 10SM BKN055 10/06 A2993 RMK AO2 SLP121 T01000056 10139 20100 58015

Get Your Daily Forecast Email!

Thanks for signing up!

Be on the lookout for a verification email in your inbox.

You'll start receiving the daily forecast at 8 AM.

×

10-Day Weather Forecast

Almanac

Astronomy

Jan. 20, 2017 Rise Set
Actual Time
Civil Twilight
Nautical Twilight
Astronomical Twilight
Moon
Length of Visible Light
Length of Day
Tomorrow will be .
, % of the Moon is Illuminated

Today's Extremes

State Highs State Lows

Community

WunderPhotos

Upload Photos

1,962,540 photos uploaded!

WunderBlog® & News

Nearby

Air Quality

  Air Quality AQ Index Pollutant
Not available.

Snow Depth

Station Depth Elevation

Earthquake Activity

City Distance Mag. Time & Date
Minimum magnitude displayed is 2.5.

Coastal Water Temperatures

Place Temperature

Stations

Nearby Weather Stations

Station Location Temp. Windchill Dew Point Humidity Wind Precip. Elev Updated Type
                   

Watches & Warnings

There are currently no watches in effect.